Time;durP1;ratioP1;P1;durP2;ratioP2;P2;SDS_P1;SDS_P2;PMS_P1;PMS_P2;Temp;Humidity;BMP_temperature;BMP_pressure;BME280_temperature;BME280_humidity;BME280_pressure;Samples;Min_cycle;Max_cycle;Signal;HPM_P1;HPM_P2
2021/04/26 00:00:11;;;;;;;11.07;2.33;;;;;;;;;;5042598;28;20434;-66
2021/04/26 00:02:37;;;;;;;8.73;2.07;;;;;;;;;;5036135;28;20475;-68
2021/04/26 00:05:04;;;;;;;2.20;1.43;;;;;;;;;;5041824;28;20619;-67
2021/04/26 00:07:30;;;;;;;8.67;2.17;;;;;;;;;;5043853;28;20975;-69
2021/04/26 00:09:56;;;;;;;4.60;1.70;;;;;;;;;;5038614;28;20453;-67
2021/04/26 00:12:22;;;;;;;5.90;2.10;;;;;;;;;;5041234;28;20435;-67
2021/04/26 00:14:48;;;;;;;7.50;1.73;;;;;;;;;;5041806;28;20458;-66
2021/04/26 00:17:14;;;;;;;6.30;2.33;;;;;;;;;;5044574;28;20515;-68
2021/04/26 00:19:40;;;;;;;8.17;2.10;;;;;;;;;;5047165;28;20449;-67
2021/04/26 00:22:06;;;;;;;4.47;1.70;;;;;;;;;;5042756;28;20438;-67
2021/04/26 00:24:32;;;;;;;13.67;1.87;;;;;;;;;;5036493;28;20466;-69
2021/04/26 00:26:58;;;;;;;5.17;2.07;;;;;;;;;;5039258;28;20525;-69
2021/04/26 00:29:25;;;;;;;2.23;1.33;;;;;;;;;;5044332;28;20557;-67
2021/04/26 00:31:51;;;;;;;6.63;1.93;;;;;;;;;;5044109;28;20446;-68
2021/04/26 00:34:17;;;;;;;9.10;1.70;;;;;;;;;;5040897;28;20493;-67
2021/04/26 00:36:43;;;;;;;9.83;2.00;;;;;;;;;;5042960;28;20968;-67
2021/04/26 00:39:09;;;;;;;10.13;2.03;;;;;;;;;;5042950;28;20492;-68
2021/04/26 00:41:35;;;;;;;6.77;1.90;;;;;;;;;;5037221;28;20446;-67
2021/04/26 00:44:01;;;;;;;7.90;2.10;;;;;;;;;;5044462;28;21026;-67
2021/04/26 00:46:27;;;;;;;2.70;1.63;;;;;;;;;;5047957;28;20523;-69
2021/04/26 00:48:53;;;;;;;4.03;2.03;;;;;;;;;;5040627;28;20482;-66
2021/04/26 00:51:19;;;;;;;3.73;1.87;;;;;;;;;;5038617;28;20445;-67
2021/04/26 00:53:45;;;;;;;4.33;1.20;;;;;;;;;;5050201;28;20457;-66
2021/04/26 00:56:11;;;;;;;6.03;1.30;;;;;;;;;;5042419;28;20536;-67
2021/04/26 00:58:37;;;;;;;8.67;1.67;;;;;;;;;;5041440;28;21274;-67
2021/04/26 01:01:03;;;;;;;6.23;1.70;;;;;;;;;;5048390;28;20520;-67
2021/04/26 01:03:30;;;;;;;3.30;1.73;;;;;;;;;;5042747;28;20434;-66
2021/04/26 01:05:56;;;;;;;5.77;1.50;;;;;;;;;;5045999;28;20829;-66
2021/04/26 01:08:22;;;;;;;6.67;1.50;;;;;;;;;;5044603;28;20964;-66
2021/04/26 01:10:48;;;;;;;4.20;1.30;;;;;;;;;;5044753;28;20772;-67
2021/04/26 01:13:31;;;;;;;5.70;1.70;;;;;;;;;;5043641;28;20529;-68
2021/04/26 01:16:17;;;;;;;3.80;1.73;;;;;;;;;;5044986;28;20532;-67
2021/04/26 01:18:55;;;;;;;10.03;2.13;;;;;;;;;;5044250;28;20430;-66
2021/04/26 01:21:24;;;;;;;5.77;2.00;;;;;;;;;;5046306;28;20789;-66
2021/04/26 01:23:50;;;;;;;4.90;1.73;;;;;;;;;;5041036;28;21055;-65
2021/04/26 01:26:37;;;;;;;4.70;1.80;;;;;;;;;;5046994;28;20537;-66
2021/04/26 01:29:25;;;;;;;3.47;1.43;;;;;;;;;;5041038;28;20442;-67
2021/04/26 01:31:54;;;;;;;5.20;1.87;;;;;;;;;;5041865;28;20426;-69
2021/04/26 01:34:21;;;;;;;8.80;2.00;;;;;;;;;;5043211;28;20473;-66
2021/04/26 01:36:48;;;;;;;2.50;1.87;;;;;;;;;;5045389;28;20454;-67
2021/04/26 01:39:16;;;;;;;6.07;1.80;;;;;;;;;;5045418;28;20435;-65
2021/04/26 01:41:43;;;;;;;6.47;1.80;;;;;;;;;;5046057;28;20983;-67
2021/04/26 01:44:10;;;;;;;4.47;2.17;;;;;;;;;;5041421;28;20859;-68
2021/04/26 01:46:37;;;;;;;10.03;2.43;;;;;;;;;;5046432;28;20950;-66
2021/04/26 01:49:03;;;;;;;7.43;2.10;;;;;;;;;;5046918;28;20446;-67
2021/04/26 01:51:29;;;;;;;3.60;1.63;;;;;;;;;;5041280;28;20543;-67
2021/04/26 01:53:55;;;;;;;2.33;1.97;;;;;;;;;;5041468;28;20461;-66
2021/04/26 01:56:22;;;;;;;2.90;2.00;;;;;;;;;;5042758;28;20477;-67
2021/04/26 01:58:49;;;;;;;4.57;1.77;;;;;;;;;;5043234;28;20457;-67
2021/04/26 02:01:18;;;;;;;5.10;2.23;;;;;;;;;;5039962;28;20453;-66
2021/04/26 02:03:54;;;;;;;12.60;1.90;;;;;;;;;;5041683;28;20461;-66
2021/04/26 02:06:21;;;;;;;4.33;1.67;;;;;;;;;;5042490;28;20577;-68
2021/04/26 02:08:47;;;;;;;4.30;1.70;;;;;;;;;;5048110;28;20669;-67
2021/04/26 02:11:14;;;;;;;5.33;2.17;;;;;;;;;;5042392;28;20438;-66
2021/04/26 02:13:40;;;;;;;2.87;1.70;;;;;;;;;;5046443;28;20548;-67
2021/04/26 02:16:07;;;;;;;5.47;2.00;;;;;;;;;;5041209;28;20446;-68
2021/04/26 02:18:33;;;;;;;5.77;2.17;;;;;;;;;;5039848;28;20443;-67
2021/04/26 02:20:59;;;;;;;3.60;1.53;;;;;;;;;;5047632;28;20438;-66
2021/04/26 02:23:26;;;;;;;7.60;2.40;;;;;;;;;;5044986;28;20434;-67
2021/04/26 02:25:52;;;;;;;5.03;2.00;;;;;;;;;;5042024;28;20988;-68
2021/04/26 02:28:18;;;;;;;7.00;1.90;;;;;;;;;;5044806;28;20468;-67
2021/04/26 02:30:44;;;;;;;3.70;1.60;;;;;;;;;;5043403;28;20445;-66
2021/04/26 02:33:17;;;;;;;4.50;2.10;;;;;;;;;;5040990;28;20443;-67
2021/04/26 02:35:51;;;;;;;3.17;1.90;;;;;;;;;;5043227;28;20511;-67
2021/04/26 02:38:22;;;;;;;2.80;1.80;;;;;;;;;;5047356;28;20446;-66
2021/04/26 02:40:52;;;;;;;4.10;2.23;;;;;;;;;;5039082;28;20438;-66
2021/04/26 02:43:18;;;;;;;9.00;2.00;;;;;;;;;;5042814;28;21010;-66
2021/04/26 02:45:48;;;;;;;4.60;2.13;;;;;;;;;;5046744;28;20469;-66
2021/04/26 02:48:14;;;;;;;5.33;2.03;;;;;;;;;;5041629;28;20848;-67
2021/04/26 02:50:42;;;;;;;4.77;2.13;;;;;;;;;;5046573;28;20444;-70
2021/04/26 02:53:08;;;;;;;1.60;1.30;;;;;;;;;;5048259;28;20451;-68
2021/04/26 02:55:35;;;;;;;4.20;2.50;;;;;;;;;;5036773;28;20575;-67
2021/04/26 02:58:01;;;;;;;3.43;1.90;;;;;;;;;;5041294;28;20454;-67
2021/04/26 03:00:29;;;;;;;9.50;2.27;;;;;;;;;;5036988;28;20529;-66
2021/04/26 03:02:56;;;;;;;7.97;2.27;;;;;;;;;;5042132;28;20511;-67
2021/04/26 03:05:23;;;;;;;3.33;1.73;;;;;;;;;;5041389;28;20651;-67
2021/04/26 03:07:49;;;;;;;4.10;1.83;;;;;;;;;;5042283;28;20493;-66
2021/04/26 03:10:17;;;;;;;10.20;2.70;;;;;;;;;;5042773;28;20796;-67
2021/04/26 03:12:46;;;;;;;4.90;2.63;;;;;;;;;;5038645;28;20461;-67
2021/04/26 03:15:15;;;;;;;2.90;1.60;;;;;;;;;;5045964;28;20877;-67
2021/04/26 03:17:41;;;;;;;5.50;1.90;;;;;;;;;;5042100;28;20450;-67
2021/04/26 03:20:12;;;;;;;4.00;1.73;;;;;;;;;;5043048;28;20435;-66
2021/04/26 03:22:40;;;;;;;4.10;1.80;;;;;;;;;;5043412;28;20515;-67
2021/04/26 03:25:06;;;;;;;6.93;2.20;;;;;;;;;;5039008;28;20481;-67
2021/04/26 03:27:33;;;;;;;5.73;2.10;;;;;;;;;;5042095;28;20442;-67
2021/04/26 03:29:59;;;;;;;7.63;2.20;;;;;;;;;;5039079;28;20446;-68
2021/04/26 03:32:26;;;;;;;3.80;2.00;;;;;;;;;;5038221;28;20434;-67
2021/04/26 03:34:53;;;;;;;8.93;2.13;;;;;;;;;;5047700;28;20843;-67
2021/04/26 03:37:19;;;;;;;8.37;2.33;;;;;;;;;;5044314;28;20948;-66
2021/04/26 03:39:46;;;;;;;10.70;2.53;;;;;;;;;;5042959;28;20442;-64
2021/04/26 03:42:14;;;;;;;4.47;2.07;;;;;;;;;;5037750;28;20480;-68
2021/04/26 03:44:43;;;;;;;3.63;1.60;;;;;;;;;;5041318;28;20520;-65
2021/04/26 03:47:09;;;;;;;3.90;1.77;;;;;;;;;;5044462;28;20995;-67
2021/04/26 03:49:35;;;;;;;3.03;1.67;;;;;;;;;;5045110;28;20472;-67
2021/04/26 03:52:01;;;;;;;3.80;1.80;;;;;;;;;;5038810;28;20442;-67
2021/04/26 03:54:27;;;;;;;7.40;2.20;;;;;;;;;;5039524;28;20516;-67
2021/04/26 03:56:53;;;;;;;5.30;1.63;;;;;;;;;;5041429;28;20570;-68
2021/04/26 03:59:19;;;;;;;5.77;2.20;;;;;;;;;;5043622;28;20438;-66
2021/04/26 04:01:45;;;;;;;3.40;1.67;;;;;;;;;;5035319;28;20462;-66
2021/04/26 04:04:11;;;;;;;3.10;1.60;;;;;;;;;;5046429;28;20542;-67
2021/04/26 04:06:37;;;;;;;3.53;1.60;;;;;;;;;;5044331;28;20561;-70
2021/04/26 04:09:05;;;;;;;5.23;1.93;;;;;;;;;;5040544;28;20475;-67
2021/04/26 04:11:31;;;;;;;3.87;1.87;;;;;;;;;;5041548;28;20446;-67
2021/04/26 04:13:56;;;;;;;4.37;1.80;;;;;;;;;;5047387;28;20549;-67
2021/04/26 04:16:23;;;;;;;9.00;3.70;;;;;;;;;;5039829;28;20435;-67
2021/04/26 04:18:49;;;;;;;8.90;2.97;;;;;;;;;;5039989;28;20435;-66
2021/04/26 04:21:15;;;;;;;7.30;3.10;;;;;;;;;;5044801;28;20495;-66
2021/04/26 04:23:41;;;;;;;5.63;3.00;;;;;;;;;;5043473;28;21951;-66
2021/04/26 04:26:08;;;;;;;3.30;2.37;;;;;;;;;;5039525;28;20727;-64
2021/04/26 04:28:34;;;;;;;5.53;2.73;;;;;;;;;;5042487;28;20500;-66
2021/04/26 04:31:01;;;;;;;9.43;3.07;;;;;;;;;;5039615;28;20446;-66
2021/04/26 04:33:27;;;;;;;5.37;2.87;;;;;;;;;;5041983;28;20434;-66
2021/04/26 04:35:53;;;;;;;7.33;2.93;;;;;;;;;;5037609;28;20564;-66
2021/04/26 04:38:19;;;;;;;5.20;2.53;;;;;;;;;;5039722;28;20442;-66
2021/04/26 04:40:45;;;;;;;8.97;3.03;;;;;;;;;;5038656;28;20462;-66
2021/04/26 04:43:11;;;;;;;9.30;2.40;;;;;;;;;;5042651;28;20453;-67
2021/04/26 04:45:37;;;;;;;13.23;4.00;;;;;;;;;;5040678;28;20520;-66
2021/04/26 04:48:04;;;;;;;8.53;3.63;;;;;;;;;;5044510;28;20442;-67
2021/04/26 04:50:30;;;;;;;8.20;4.60;;;;;;;;;;5040730;28;20431;-69
2021/04/26 04:52:57;;;;;;;7.97;4.20;;;;;;;;;;5039140;28;20931;-66
2021/04/26 04:55:23;;;;;;;5.27;3.00;;;;;;;;;;5041698;28;20485;-68
2021/04/26 04:57:49;;;;;;;4.43;2.77;;;;;;;;;;5044489;28;20454;-67
2021/04/26 05:00:15;;;;;;;3.57;2.23;;;;;;;;;;5036994;28;20438;-68
2021/04/26 05:02:41;;;;;;;4.10;2.03;;;;;;;;;;5025968;28;20470;-67
2021/04/26 05:05:07;;;;;;;5.63;1.80;;;;;;;;;;5043714;28;20475;-67
2021/04/26 05:07:34;;;;;;;3.17;1.40;;;;;;;;;;5035353;28;20449;-67
2021/04/26 05:10:00;;;;;;;5.10;1.53;;;;;;;;;;5031642;28;20443;-68
2021/04/26 05:12:26;;;;;;;4.77;1.73;;;;;;;;;;5024923;28;20994;-67
2021/04/26 05:14:52;;;;;;;9.63;2.13;;;;;;;;;;5038165;28;20458;-67
2021/04/26 05:17:19;;;;;;;5.43;2.23;;;;;;;;;;5034087;28;20974;-66
2021/04/26 05:19:45;;;;;;;7.13;2.17;;;;;;;;;;5033091;28;20449;-66
2021/04/26 05:22:11;;;;;;;5.83;2.00;;;;;;;;;;5038244;28;20496;-67
2021/04/26 05:24:37;;;;;;;5.47;1.53;;;;;;;;;;5040655;28;20516;-66
2021/04/26 05:27:04;;;;;;;2.37;1.60;;;;;;;;;;5039437;28;20505;-67
2021/04/26 05:29:30;;;;;;;4.00;1.73;;;;;;;;;;5043779;28;20434;-65
2021/04/26 05:31:56;;;;;;;4.40;1.90;;;;;;;;;;5035363;28;20441;-65
2021/04/26 05:34:22;;;;;;;4.63;1.70;;;;;;;;;;5044229;28;21095;-66
2021/04/26 05:36:48;;;;;;;12.30;1.83;;;;;;;;;;5037237;28;20457;-66
2021/04/26 05:39:14;;;;;;;3.27;1.47;;;;;;;;;;5044465;28;20442;-66
2021/04/26 05:41:40;;;;;;;6.33;1.50;;;;;;;;;;5021816;28;20492;-66
2021/04/26 05:44:06;;;;;;;4.73;1.97;;;;;;;;;;5050222;28;20472;-65
2021/04/26 05:46:32;;;;;;;2.07;1.27;;;;;;;;;;5042867;28;20469;-66
2021/04/26 05:48:58;;;;;;;2.90;1.17;;;;;;;;;;5037709;28;20453;-67
2021/04/26 05:51:24;;;;;;;4.00;1.27;;;;;;;;;;5039986;28;20477;-65
2021/04/26 05:53:50;;;;;;;4.87;2.33;;;;;;;;;;5043949;28;20497;-65
2021/04/26 05:56:17;;;;;;;1.43;0.90;;;;;;;;;;5049108;28;20503;-65
2021/04/26 05:58:43;;;;;;;3.13;1.30;;;;;;;;;;5042582;28;20448;-65
2021/04/26 06:01:09;;;;;;;4.13;1.20;;;;;;;;;;5041415;28;20437;-68
2021/04/26 06:03:35;;;;;;;2.10;1.33;;;;;;;;;;5040299;28;20879;-71
2021/04/26 06:06:01;;;;;;;2.03;1.03;;;;;;;;;;5029643;28;21099;-67
2021/04/26 06:08:27;;;;;;;2.87;1.67;;;;;;;;;;5043782;28;20450;-66
2021/04/26 06:10:53;;;;;;;3.03;1.50;;;;;;;;;;5044932;28;20601;-69
2021/04/26 06:13:20;;;;;;;3.17;1.00;;;;;;;;;;5047576;28;20517;-68
2021/04/26 06:15:46;;;;;;;1.87;1.03;;;;;;;;;;5041599;28;20982;-69
2021/04/26 06:18:22;;;;;;;5.03;0.80;;;;;;;;;;5043237;28;20442;-68
2021/04/26 06:20:49;;;;;;;5.07;1.30;;;;;;;;;;5038986;28;20430;-68
2021/04/26 06:23:16;;;;;;;3.43;1.20;;;;;;;;;;5032506;28;20461;-71
2021/04/26 06:25:43;;;;;;;3.37;1.17;;;;;;;;;;5041889;28;20486;-68
2021/04/26 06:28:09;;;;;;;4.20;1.80;;;;;;;;;;5038933;28;20435;-69
2021/04/26 06:30:36;;;;;;;7.63;1.67;;;;;;;;;;5046031;28;20438;-67
2021/04/26 06:33:02;;;;;;;3.70;1.20;;;;;;;;;;5043923;28;20442;-69
2021/04/26 06:35:28;;;;;;;2.57;1.33;;;;;;;;;;5044923;28;20458;-67
2021/04/26 06:37:54;;;;;;;6.63;1.23;;;;;;;;;;5041081;28;20852;-68
2021/04/26 06:40:20;;;;;;;3.73;1.37;;;;;;;;;;5044626;28;20446;-69
2021/04/26 06:42:47;;;;;;;2.83;1.30;;;;;;;;;;5040779;28;20488;-67
2021/04/26 06:45:13;;;;;;;2.87;1.20;;;;;;;;;;5031909;28;20474;-68
2021/04/26 06:47:39;;;;;;;3.70;1.13;;;;;;;;;;5038078;28;20453;-68
2021/04/26 06:50:06;;;;;;;4.00;1.27;;;;;;;;;;5042153;28;20489;-72
2021/04/26 06:52:32;;;;;;;4.83;1.13;;;;;;;;;;5042002;28;20473;-66
2021/04/26 06:54:58;;;;;;;5.90;1.00;;;;;;;;;;5045706;28;20451;-68
2021/04/26 06:57:24;;;;;;;6.67;1.67;;;;;;;;;;5044416;28;20560;-67
2021/04/26 06:59:50;;;;;;;3.43;0.90;;;;;;;;;;5040621;28;20460;-68
2021/04/26 07:02:16;;;;;;;4.50;1.30;;;;;;;;;;5038049;28;20446;-67
2021/04/26 07:04:42;;;;;;;2.70;1.20;;;;;;;;;;5044276;28;20573;-69
2021/04/26 07:07:08;;;;;;;1.50;1.10;;;;;;;;;;5029146;28;21174;-67
2021/04/26 07:09:34;;;;;;;2.77;1.37;;;;;;;;;;5047311;28;20481;-67
2021/04/26 07:12:00;;;;;;;3.57;1.00;;;;;;;;;;5045083;28;20525;-68
2021/04/26 07:14:26;;;;;;;1.67;0.93;;;;;;;;;;5046562;28;20584;-70
2021/04/26 07:16:53;;;;;;;1.67;0.97;;;;;;;;;;5035265;28;21063;-70
2021/04/26 07:19:19;;;;;;;2.90;1.07;;;;;;;;;;5025253;28;20446;-70
2021/04/26 07:21:45;;;;;;;4.30;1.30;;;;;;;;;;5030697;28;20492;-68
2021/04/26 07:24:11;;;;;;;11.63;1.40;;;;;;;;;;5040080;28;20523;-72
2021/04/26 07:26:37;;;;;;;1.00;0.90;;;;;;;;;;5028867;28;20814;-68
2021/04/26 07:29:03;;;;;;;5.40;1.17;;;;;;;;;;5023543;28;20520;-70
2021/04/26 07:31:29;;;;;;;2.27;0.97;;;;;;;;;;5026100;28;20434;-70
2021/04/26 07:33:55;;;;;;;1.33;1.20;;;;;;;;;;5033588;28;20535;-67
2021/04/26 07:36:22;;;;;;;3.30;0.93;;;;;;;;;;5030075;28;20473;-69
2021/04/26 07:38:48;;;;;;;2.33;0.80;;;;;;;;;;5024546;28;20488;-68
2021/04/26 07:41:14;;;;;;;3.50;1.20;;;;;;;;;;5022866;28;21174;-70
2021/04/26 07:43:40;;;;;;;5.73;1.00;;;;;;;;;;5026122;28;20975;-67
2021/04/26 07:46:07;;;;;;;1.47;0.70;;;;;;;;;;5026913;28;20477;-68
2021/04/26 07:48:33;;;;;;;2.73;1.03;;;;;;;;;;5026502;28;20438;-67
2021/04/26 07:50:59;;;;;;;3.30;0.83;;;;;;;;;;5034197;28;22735;-67
2021/04/26 07:53:25;;;;;;;1.00;0.77;;;;;;;;;;5030842;28;20541;-69
2021/04/26 07:55:51;;;;;;;1.60;0.73;;;;;;;;;;5030196;28;21081;-69
2021/04/26 07:58:17;;;;;;;1.83;1.10;;;;;;;;;;5027555;28;20442;-69
2021/04/26 08:00:43;;;;;;;2.03;0.80;;;;;;;;;;5025995;28;20500;-67
2021/04/26 08:03:09;;;;;;;2.47;1.00;;;;;;;;;;5025539;28;20438;-70
2021/04/26 08:05:35;;;;;;;1.87;0.90;;;;;;;;;;5025799;28;20474;-68
2021/04/26 08:08:01;;;;;;;2.50;0.77;;;;;;;;;;5026953;28;20446;-68
2021/04/26 08:10:27;;;;;;;1.23;0.60;;;;;;;;;;5020246;28;20464;-71
2021/04/26 08:12:53;;;;;;;1.13;0.70;;;;;;;;;;5024339;28;20445;-67
2021/04/26 08:15:22;;;;;;;1.70;0.80;;;;;;;;;;5040293;28;20461;-71
2021/04/26 08:17:48;;;;;;;1.17;0.67;;;;;;;;;;5032306;28;20495;-67
2021/04/26 08:20:14;;;;;;;1.10;0.70;;;;;;;;;;5027804;28;20445;-66
2021/04/26 08:22:40;;;;;;;1.80;0.80;;;;;;;;;;5028265;28;20544;-66
2021/04/26 08:25:06;;;;;;;4.93;1.00;;;;;;;;;;5032909;28;20473;-66
2021/04/26 08:27:32;;;;;;;2.40;1.30;;;;;;;;;;5041310;28;20426;-67
2021/04/26 08:29:58;;;;;;;1.77;0.70;;;;;;;;;;5041969;28;20872;-67
2021/04/26 08:32:24;;;;;;;5.40;1.00;;;;;;;;;;5037782;28;20483;-66
2021/04/26 08:34:50;;;;;;;0.60;0.60;;;;;;;;;;5032041;28;20477;-67
2021/04/26 08:37:16;;;;;;;7.93;1.10;;;;;;;;;;5036660;28;20481;-66
2021/04/26 08:39:42;;;;;;;1.70;1.13;;;;;;;;;;5032150;28;20465;-66
2021/04/26 08:42:08;;;;;;;2.30;0.60;;;;;;;;;;5040114;28;20450;-67
2021/04/26 08:44:34;;;;;;;1.00;0.90;;;;;;;;;;5041752;28;20524;-67
2021/04/26 08:47:01;;;;;;;0.97;0.73;;;;;;;;;;5041204;28;20426;-67
2021/04/26 08:49:27;;;;;;;0.93;0.67;;;;;;;;;;5042832;28;20799;-66
2021/04/26 08:51:53;;;;;;;0.83;0.60;;;;;;;;;;5038609;28;20450;-68
2021/04/26 08:54:19;;;;;;;2.23;0.70;;;;;;;;;;5040105;28;20841;-67
2021/04/26 08:56:48;;;;;;;1.73;0.60;;;;;;;;;;5042198;28;20447;-66
2021/04/26 08:59:14;;;;;;;2.20;0.77;;;;;;;;;;5039161;28;20426;-66
2021/04/26 09:01:40;;;;;;;2.20;0.63;;;;;;;;;;5041808;28;20505;-67
2021/04/26 09:04:10;;;;;;;1.80;0.90;;;;;;;;;;5038820;28;21061;-67
2021/04/26 09:06:49;;;;;;;0.87;0.80;;;;;;;;;;5043210;28;20568;-67
2021/04/26 09:09:32;;;;;;;2.00;0.87;;;;;;;;;;5035372;28;20984;-67
2021/04/26 09:11:58;;;;;;;3.57;0.70;;;;;;;;;;5038137;28;20450;-67
2021/04/26 09:14:43;;;;;;;0.60;0.60;;;;;;;;;;5044417;28;20458;-66
2021/04/26 09:17:27;;;;;;;2.20;0.87;;;;;;;;;;5036579;28;20441;-67
2021/04/26 09:19:54;;;;;;;2.53;0.90;;;;;;;;;;5042917;28;20446;-66
2021/04/26 09:22:55;;;;;;;1.90;0.63;;;;;;;;;;5036336;28;20450;-68
2021/04/26 09:25:21;;;;;;;2.90;0.67;;;;;;;;;;5006203;28;20531;-66
2021/04/26 09:27:51;;;;;;;2.10;0.70;;;;;;;;;;5042356;28;20857;-66
2021/04/26 09:30:34;;;;;;;0.73;0.73;;;;;;;;;;5045530;28;20461;-66
2021/04/26 09:33:14;;;;;;;2.03;1.00;;;;;;;;;;5030825;28;20457;-68
2021/04/26 09:35:40;;;;;;;0.70;0.60;;;;;;;;;;5040128;28;20453;-70
2021/04/26 09:38:24;;;;;;;2.00;0.80;;;;;;;;;;5042962;28;20584;-68
2021/04/26 09:41:11;;;;;;;2.00;0.70;;;;;;;;;;5042260;28;21304;-67
2021/04/26 09:43:37;;;;;;;0.90;0.70;;;;;;;;;;5042068;28;20499;-67
2021/04/26 09:46:04;;;;;;;2.43;0.90;;;;;;;;;;5046355;28;20470;-69
2021/04/26 09:48:30;;;;;;;2.10;0.80;;;;;;;;;;5046571;28;20437;-69
2021/04/26 09:50:56;;;;;;;1.73;0.77;;;;;;;;;;5049399;28;20437;-68
2021/04/26 09:53:32;;;;;;;1.50;0.90;;;;;;;;;;5040995;28;20925;-69
2021/04/26 09:56:09;;;;;;;3.03;0.97;;;;;;;;;;5045212;28;20495;-68
2021/04/26 09:58:35;;;;;;;1.27;0.83;;;;;;;;;;5040709;28;20441;-68
2021/04/26 10:01:01;;;;;;;2.87;0.90;;;;;;;;;;5034690;28;21704;-68
2021/04/26 10:03:28;;;;;;;1.13;0.70;;;;;;;;;;5034614;28;20447;-67
2021/04/26 10:05:54;;;;;;;3.87;1.00;;;;;;;;;;5033663;28;20504;-68
2021/04/26 10:08:20;;;;;;;3.33;0.90;;;;;;;;;;5029885;28;20997;-65
2021/04/26 10:10:47;;;;;;;1.03;0.70;;;;;;;;;;5032771;28;20924;-67
2021/04/26 10:13:13;;;;;;;1.50;0.83;;;;;;;;;;5036144;28;21032;-69
2021/04/26 10:15:42;;;;;;;1.27;1.00;;;;;;;;;;5039426;28;20588;-71
2021/04/26 10:18:09;;;;;;;2.97;1.07;;;;;;;;;;5034564;28;20442;-69
2021/04/26 10:20:40;;;;;;;2.10;0.90;;;;;;;;;;5028757;28;20442;-68
2021/04/26 10:23:26;;;;;;;1.47;0.73;;;;;;;;;;5037887;28;20489;-69
2021/04/26 10:25:52;;;;;;;1.37;0.97;;;;;;;;;;5035837;28;20484;-67
2021/04/26 10:28:29;;;;;;;2.73;0.80;;;;;;;;;;5039123;28;20863;-68
2021/04/26 10:31:10;;;;;;;2.97;1.07;;;;;;;;;;5041739;28;20437;-70
2021/04/26 10:33:55;;;;;;;1.17;0.87;;;;;;;;;;5036912;28;20547;-66
2021/04/26 10:36:40;;;;;;;2.33;1.10;;;;;;;;;;5038919;28;20495;-68
2021/04/26 10:39:10;;;;;;;0.70;0.70;;;;;;;;;;5038105;28;20442;-67
2021/04/26 10:41:55;;;;;;;1.87;0.80;;;;;;;;;;5036937;28;20856;-71
2021/04/26 10:44:40;;;;;;;3.87;0.90;;;;;;;;;;5034173;28;20675;-67
2021/04/26 10:47:26;;;;;;;1.43;0.97;;;;;;;;;;5032853;28;20496;-70
2021/04/26 10:49:54;;;;;;;1.27;0.90;;;;;;;;;;5033507;28;20529;-67
2021/04/26 10:52:29;;;;;;;2.30;0.70;;;;;;;;;;5039431;28;20915;-68
2021/04/26 10:54:56;;;;;;;3.73;0.90;;;;;;;;;;5030992;28;20446;-68
2021/04/26 10:57:34;;;;;;;1.43;0.70;;;;;;;;;;5030163;28;20446;-69
2021/04/26 11:00:18;;;;;;;1.83;0.70;;;;;;;;;;5036506;28;20557;-69
2021/04/26 11:02:44;;;;;;;2.00;0.90;;;;;;;;;;5040580;28;20453;-69
2021/04/26 11:05:17;;;;;;;1.60;0.73;;;;;;;;;;5035521;28;21024;-66
2021/04/26 11:07:46;;;;;;;1.27;0.80;;;;;;;;;;5037680;28;20438;-68
2021/04/26 11:10:27;;;;;;;2.27;0.60;;;;;;;;;;5034198;28;20529;-66
2021/04/26 11:12:53;;;;;;;1.73;0.60;;;;;;;;;;5033486;28;20441;-66
2021/04/26 11:15:24;;;;;;;4.93;1.10;;;;;;;;;;5036138;28;21796;-65
2021/04/26 11:17:50;;;;;;;1.60;0.80;;;;;;;;;;5035735;28;20495;-64
2021/04/26 11:20:19;;;;;;;1.30;0.73;;;;;;;;;;5036471;28;20446;-68
2021/04/26 11:22:45;;;;;;;5.10;0.80;;;;;;;;;;5040624;28;20458;-66
2021/04/26 11:25:31;;;;;;;2.10;0.90;;;;;;;;;;5025844;28;20466;-69
2021/04/26 11:27:58;;;;;;;1.37;1.00;;;;;;;;;;5023983;28;20450;-65
2021/04/26 11:30:26;;;;;;;1.53;0.70;;;;;;;;;;5028207;28;20446;-67
2021/04/26 11:33:00;;;;;;;2.37;0.83;;;;;;;;;;5030141;28;21012;-65
2021/04/26 11:35:26;;;;;;;0.50;0.50;;;;;;;;;;5030763;28;20488;-66
2021/04/26 11:37:53;;;;;;;1.53;0.90;;;;;;;;;;5043954;28;20481;-65
2021/04/26 11:40:23;;;;;;;2.40;0.60;;;;;;;;;;5033509;28;20454;-67
2021/04/26 11:42:49;;;;;;;0.90;0.57;;;;;;;;;;5029415;28;20455;-66
2021/04/26 11:45:20;;;;;;;3.40;0.70;;;;;;;;;;5024244;28;20895;-67
2021/04/26 11:47:47;;;;;;;1.90;0.80;;;;;;;;;;5027438;28;20434;-66
2021/04/26 11:50:13;;;;;;;1.27;0.60;;;;;;;;;;5036075;28;20437;-65
2021/04/26 11:52:39;;;;;;;2.87;0.90;;;;;;;;;;5033277;28;20446;-67
2021/04/26 11:55:05;;;;;;;1.80;0.70;;;;;;;;;;5038613;28;20882;-66
2021/04/26 11:57:39;;;;;;;2.10;0.70;;;;;;;;;;5043946;28;20441;-67
2021/04/26 12:00:15;;;;;;;1.70;0.90;;;;;;;;;;5041581;28;21168;-68
2021/04/26 12:02:44;;;;;;;2.10;0.63;;;;;;;;;;5034508;28;20449;-66
2021/04/26 12:05:11;;;;;;;3.07;0.83;;;;;;;;;;5038268;28;20990;-67
2021/04/26 12:07:38;;;;;;;1.53;0.80;;;;;;;;;;5032455;28;20461;-67
2021/04/26 12:10:09;;;;;;;1.90;0.73;;;;;;;;;;5035668;28;20542;-66
2021/04/26 12:12:36;;;;;;;1.00;0.70;;;;;;;;;;5041571;28;20434;-65
2021/04/26 12:15:06;;;;;;;1.77;0.67;;;;;;;;;;5042509;28;20472;-66
2021/04/26 12:17:34;;;;;;;2.37;1.20;;;;;;;;;;5044432;28;20449;-66
2021/04/26 12:20:01;;;;;;;2.00;1.00;;;;;;;;;;5037562;28;20937;-65
2021/04/26 12:22:27;;;;;;;2.87;0.80;;;;;;;;;;5040287;28;20814;-66
2021/04/26 12:24:54;;;;;;;1.30;0.90;;;;;;;;;;5038160;28;21034;-66
2021/04/26 12:27:26;;;;;;;2.80;1.00;;;;;;;;;;5036314;28;20454;-66
2021/04/26 12:29:53;;;;;;;0.80;0.80;;;;;;;;;;5037857;28;20433;-66
2021/04/26 12:32:20;;;;;;;2.00;0.93;;;;;;;;;;5031508;28;20439;-66
2021/04/26 12:34:49;;;;;;;1.93;0.93;;;;;;;;;;5037405;28;20533;-68
2021/04/26 12:37:15;;;;;;;3.10;0.90;;;;;;;;;;5037318;28;20442;-66
2021/04/26 12:39:42;;;;;;;3.50;0.90;;;;;;;;;;5030037;28;20504;-66
2021/04/26 12:42:13;;;;;;;3.87;1.13;;;;;;;;;;5034408;28;20518;-65
2021/04/26 12:44:39;;;;;;;1.07;0.87;;;;;;;;;;5033852;28;20462;-67
2021/04/26 12:47:24;;;;;;;2.67;0.90;;;;;;;;;;5037521;28;20816;-67
2021/04/26 12:50:09;;;;;;;1.30;0.80;;;;;;;;;;5042116;28;20438;-67
2021/04/26 12:52:35;;;;;;;2.50;1.00;;;;;;;;;;5035079;28;20537;-67
2021/04/26 12:55:02;;;;;;;1.00;0.90;;;;;;;;;;5041294;28;20562;-67
2021/04/26 12:57:29;;;;;;;1.57;0.80;;;;;;;;;;5035295;28;20434;-66
2021/04/26 12:59:55;;;;;;;1.77;1.10;;;;;;;;;;5032848;28;20501;-68
2021/04/26 13:02:22;;;;;;;1.43;0.77;;;;;;;;;;5041189;28;20557;-65
2021/04/26 13:04:48;;;;;;;1.80;0.93;;;;;;;;;;5042126;28;21029;-66
2021/04/26 13:07:15;;;;;;;1.80;0.87;;;;;;;;;;5035773;28;20964;-67
2021/04/26 13:09:41;;;;;;;2.30;1.10;;;;;;;;;;5032171;28;21079;-65
2021/04/26 13:12:08;;;;;;;2.23;1.03;;;;;;;;;;5032605;28;20504;-66
2021/04/26 13:14:35;;;;;;;2.50;1.13;;;;;;;;;;5032933;28;20465;-68
2021/04/26 13:17:09;;;;;;;2.23;1.00;;;;;;;;;;5029202;28;20512;-65
2021/04/26 13:19:36;;;;;;;5.07;1.10;;;;;;;;;;5038230;28;20489;-65
2021/04/26 13:22:02;;;;;;;3.77;1.07;;;;;;;;;;5035881;28;20468;-73
2021/04/26 13:24:31;;;;;;;5.03;1.27;;;;;;;;;;5042449;28;20481;-79
2021/04/26 13:27:00;;;;;;;1.40;1.30;;;;;;;;;;5044755;28;20474;-76
2021/04/26 13:29:27;;;;;;;2.00;1.00;;;;;;;;;;5038201;28;20884;-76
2021/04/26 13:31:55;;;;;;;1.83;1.23;;;;;;;;;;5047065;28;20940;-78
2021/04/26 13:34:21;;;;;;;3.00;0.90;;;;;;;;;;5043436;28;21066;-76
2021/04/26 13:36:47;;;;;;;1.03;0.97;;;;;;;;;;5042951;28;20434;-76
2021/04/26 13:39:15;;;;;;;2.97;1.23;;;;;;;;;;5041330;28;20537;-75
2021/04/26 13:41:41;;;;;;;6.07;1.00;;;;;;;;;;5054612;28;21030;-75
2021/04/26 13:44:07;;;;;;;3.80;1.00;;;;;;;;;;5043223;28;20521;-78
2021/04/26 13:46:33;;;;;;;1.37;1.20;;;;;;;;;;5044173;28;20479;-75
2021/04/26 13:49:00;;;;;;;2.30;1.30;;;;;;;;;;5042781;28;20437;-76
2021/04/26 13:51:26;;;;;;;1.90;1.30;;;;;;;;;;5039290;28;20485;-75
2021/04/26 13:53:53;;;;;;;1.40;1.10;;;;;;;;;;5045927;28;20889;-76
2021/04/26 13:56:19;;;;;;;2.67;0.97;;;;;;;;;;5050699;28;20900;-74
2021/04/26 13:58:45;;;;;;;1.70;1.00;;;;;;;;;;5042194;28;20530;-74
2021/04/26 14:01:11;;;;;;;4.27;1.30;;;;;;;;;;5042045;28;20437;-74
2021/04/26 14:03:37;;;;;;;3.70;1.30;;;;;;;;;;5047998;28;21019;-75
2021/04/26 14:06:03;;;;;;;1.87;1.10;;;;;;;;;;5046191;28;20565;-76
2021/04/26 14:08:30;;;;;;;2.40;1.40;;;;;;;;;;5037133;28;20529;-75
2021/04/26 14:10:59;;;;;;;1.47;1.10;;;;;;;;;;5051397;28;20442;-77
2021/04/26 14:13:25;;;;;;;1.33;1.10;;;;;;;;;;5046174;28;20438;-76
2021/04/26 14:15:51;;;;;;;1.07;0.97;;;;;;;;;;5042954;28;20541;-74
2021/04/26 14:18:17;;;;;;;1.97;1.00;;;;;;;;;;5045810;28;20537;-72
2021/04/26 14:20:43;;;;;;;2.50;1.13;;;;;;;;;;5046610;28;20454;-75
2021/04/26 14:23:11;;;;;;;1.33;1.03;;;;;;;;;;5047902;28;20446;-77
2021/04/26 14:25:41;;;;;;;4.30;1.27;;;;;;;;;;5046808;28;20475;-73
2021/04/26 14:28:08;;;;;;;2.10;0.90;;;;;;;;;;5050852;28;20948;-76
2021/04/26 14:30:34;;;;;;;1.80;1.30;;;;;;;;;;5044777;28;20441;-79
2021/04/26 14:33:00;;;;;;;0.80;0.80;;;;;;;;;;5045735;28;20951;-75
2021/04/26 14:35:27;;;;;;;1.70;0.83;;;;;;;;;;5039134;28;20466;-74
2021/04/26 14:37:55;;;;;;;2.60;1.20;;;;;;;;;;5043202;28;20893;-76
2021/04/26 14:40:21;;;;;;;1.60;0.90;;;;;;;;;;5034613;28;20443;-77
2021/04/26 14:42:47;;;;;;;3.20;1.00;;;;;;;;;;5052170;28;20461;-80
2021/04/26 14:45:13;;;;;;;1.10;1.00;;;;;;;;;;5051938;28;21016;-77
2021/04/26 14:47:40;;;;;;;3.27;1.00;;;;;;;;;;5058812;28;20426;-78